Time;durP1;ratioP1;P1;durP2;ratioP2;P2;SDS_P1;SDS_P2;PMS_P1;PMS_P2;Temp;Humidity;BMP_temperature;BMP_pressure;BME280_temperature;BME280_humidity;BME280_pressure;Samples;Min_cycle;Max_cycle;Signal;HPM_P1;HPM_P2
2021/08/03 00:11:59;;;;;;;5.30;2.57;;;;;;;16.17;78.34;99958.86;713852;1181;113502;-76
2021/08/03 00:27:04;;;;;;;2.80;1.60;;;;;;;15.93;79.66;99979.23;713785;1193;114040;-75
2021/08/03 00:42:07;;;;;;;7.20;2.40;;;;;;;15.73;82.24;99976.19;713887;1200;113677;-75
2021/08/03 00:57:11;;;;;;;3.23;2.00;;;;;;;15.61;81.97;99978.42;713738;1202;114097;-76
2021/08/03 01:12:35;;;;;;;5.25;2.20;;;;;;;15.43;83.12;99982.17;713868;1177;113729;-76
2021/08/03 01:28:06;;;;;;;3.88;1.75;;;;;;;15.23;85.38;99989.72;713902;1202;114748;-76
2021/08/03 01:43:09;;;;;;;8.00;1.93;;;;;;;15.00;87.82;99989.65;713742;1200;115349;-78
2021/08/03 01:58:14;;;;;;;4.50;1.80;;;;;;;14.87;89.79;100015.78;713857;1203;113653;-75
2021/08/03 02:13:17;;;;;;;6.00;2.37;;;;;;;14.84;90.70;100013.48;713862;1186;113532;-76
2021/08/03 02:28:19;;;;;;;9.25;2.40;;;;;;;14.81;90.72;100033.95;713689;1200;113919;-76
2021/08/03 02:43:26;;;;;;;2.50;1.85;;;;;;;14.65;92.23;100044.55;713958;1177;114189;-76
2021/08/03 02:58:37;;;;;;;3.03;1.53;;;;;;;14.58;94.99;100035.61;713941;1178;113538;-77
2021/08/03 03:13:50;;;;;;;3.87;2.60;;;;;;;14.53;95.62;100041.41;714109;1200;114021;-79
2021/08/03 03:28:55;;;;;;;4.08;1.90;;;;;;;14.29;97.59;100055.42;714807;1203;115042;-75
2021/08/03 03:43:58;;;;;;;4.87;1.90;;;;;;;14.26;97.31;100068.95;714694;1200;114624;-75
2021/08/03 03:59:02;;;;;;;5.58;1.95;;;;;;;14.42;98.42;100086.59;715091;1202;115286;-76
2021/08/03 04:14:04;;;;;;;5.48;1.95;;;;;;;14.58;100.00;100096.32;714016;1200;114508;-75
2021/08/03 04:29:07;;;;;;;4.57;2.30;;;;;;;14.89;99.46;100088.56;713778;1200;114312;-78
2021/08/03 04:44:09;;;;;;;5.00;2.53;;;;;;;15.25;100.00;100106.63;713837;1202;113836;-76
2021/08/03 04:59:11;;;;;;;5.15;2.10;;;;;;;15.64;99.85;100107.65;713787;1203;114323;-76
2021/08/03 05:14:13;;;;;;;4.73;2.13;;;;;;;16.17;99.84;100112.34;713711;1205;114044;-77
2021/08/03 05:29:15;;;;;;;3.53;1.88;;;;;;;16.73;99.06;100128.74;714085;1206;114082;-77
2021/08/03 05:44:18;;;;;;;6.80;2.50;;;;;;;17.26;97.73;100133.23;713996;1201;114611;-77
2021/08/03 05:59:22;;;;;;;4.83;1.88;;;;;;;17.66;96.78;100144.38;713731;1200;114570;-77
2021/08/03 06:14:37;;;;;;;7.80;2.30;;;;;;;17.95;96.97;100155.97;713707;1200;114310;-78
2021/08/03 06:29:40;;;;;;;2.93;1.87;;;;;;;18.59;96.22;100152.50;714013;1184;113657;-77
2021/08/03 06:45:04;;;;;;;4.85;2.28;;;;;;;19.03;94.92;100163.94;714511;1179;114105;-84
2021/08/03 07:00:09;;;;;;;5.27;2.47;;;;;;;19.56;94.18;100166.09;717486;1178;113873;-83
2021/08/03 07:15:12;;;;;;;3.55;1.80;;;;;;;20.18;93.40;100167.96;715726;1177;114216;-87
2021/08/03 07:30:15;;;;;;;6.33;2.38;;;;;;;20.95;90.96;100179.95;715685;1200;114289;-80
2021/08/03 07:45:18;;;;;;;3.75;1.78;;;;;;;21.37;88.53;100182.36;714603;1206;115966;-81
2021/08/03 08:00:20;;;;;;;4.77;1.87;;;;;;;21.97;86.03;100178.67;713974;1200;113821;-80
2021/08/03 08:15:22;;;;;;;4.60;1.30;;;;;;;21.96;80.95;100168.21;714574;1177;114349;-87
2021/08/03 08:30:24;;;;;;;4.43;1.78;;;;;;;23.06;78.88;100173.20;714169;1177;113881;-86
2021/08/03 08:45:27;;;;;;;2.75;1.25;;;;;;;23.49;75.87;100173.41;717030;1200;115110;-86
2021/08/03 09:00:29;;;;;;;2.78;0.90;;;;;;;23.21;73.07;100170.19;718704;1200;114690;-86
2021/08/03 09:15:34;;;;;;;5.63;1.53;;;;;;;23.87;68.53;100170.45;716542;1200;114571;-85
2021/08/03 09:30:38;;;;;;;5.33;1.20;;;;;;;24.04;65.83;100183.27;716117;1200;114643;-86
2021/08/03 09:45:43;;;;;;;1.70;0.97;;;;;;;24.55;64.52;100170.38;718347;1203;114306;-85
2021/08/03 10:00:49;;;;;;;3.28;1.10;;;;;;;25.45;63.75;100179.16;716542;1200;114487;-86
2021/08/03 10:15:51;;;;;;;2.13;1.08;;;;;;;25.34;62.71;100185.32;716728;1203;113942;-85
2021/08/03 10:30:54;;;;;;;2.58;0.98;;;;;;;24.92;60.12;100178.25;716600;1200;113764;-78
2021/08/03 10:46:09;;;;;;;3.85;1.40;;;;;;;25.98;57.91;100184.50;715822;1177;113753;-86
2021/08/03 11:01:45;;;;;;;2.60;1.00;;;;;;;25.62;55.01;100186.50;715617;1177;113642;-88
2021/08/03 11:16:48;;;;;;;5.23;2.50;;;;;;;25.60;54.60;100184.02;716358;1200;115462;-88
2021/08/03 11:31:56;;;;;;;6.13;1.10;;;;;;;25.99;54.50;100168.13;716471;1200;114670;-89
2021/08/03 11:47:05;;;;;;;5.08;1.60;;;;;;;24.28;55.53;100164.59;715733;1177;113848;-88
2021/08/03 12:02:07;;;;;;;5.00;1.33;;;;;;;24.92;54.66;100159.47;715641;1189;113781;-89
2021/08/03 12:17:27;;;;;;;5.50;1.50;;;;;;;25.43;54.21;100148.23;715711;1200;114560;-89
2021/08/03 12:32:44;;;;;;;2.28;1.10;;;;;;;26.76;52.80;100151.72;715355;1200;115071;-77
2021/08/03 12:47:56;;;;;;;3.10;1.10;;;;;;;26.30;53.76;100141.01;716132;1199;114543;-81
2021/08/03 13:03:00;;;;;;;3.20;1.17;;;;;;;26.65;51.61;100134.59;724794;1177;113676;-80
2021/08/03 13:18:03;;;;;;;3.15;1.85;;;;;;;25.93;51.01;100127.97;714552;1203;113926;-75
2021/08/03 13:33:05;;;;;;;4.48;1.83;;;;;;;24.98;52.55;100122.83;715588;1200;113825;-80
2021/08/03 13:48:07;;;;;;;2.90;1.17;;;;;;;25.62;52.07;100122.84;715123;1179;113809;-73
2021/08/03 14:03:09;;;;;;;9.30;1.80;;;;;;;25.61;50.79;100112.34;714742;1177;113905;-82
2021/08/03 14:18:12;;;;;;;3.08;1.65;;;;;;;25.37;50.06;100097.12;714084;1184;113950;-75
2021/08/03 14:33:15;;;;;;;4.33;1.88;;;;;;;32.33;44.00;100089.54;716018;1178;113682;-87
2021/08/03 14:48:17;;;;;;;4.48;1.40;;;;;;;30.27;42.31;100075.02;715071;1200;115172;-78
2021/08/03 15:03:19;;;;;;;2.17;1.40;;;;;;;26.59;45.81;100061.05;715694;1189;113726;-77
2021/08/03 15:18:22;;;;;;;5.05;2.90;;;;;;;25.76;47.96;100066.95;714964;1206;115851;-78
2021/08/03 15:33:24;;;;;;;14.78;3.88;;;;;;;26.71;52.41;100091.41;713915;1200;115245;-78
2021/08/03 15:48:27;;;;;;;4.63;2.40;;;;;;;25.29;54.96;100099.34;714036;1200;114112;-77
2021/08/03 16:03:29;;;;;;;8.30;3.10;;;;;;;25.24;56.67;100114.27;713991;1202;114469;-79
2021/08/03 16:18:44;;;;;;;4.00;2.10;;;;;;;25.20;57.22;100121.16;713717;1176;114205;-77
2021/08/03 16:33:47;;;;;;;14.53;3.00;;;;;;;24.08;58.72;100110.27;714257;1175;113821;-79
2021/08/03 16:48:51;;;;;;;10.18;3.55;;;;;;;23.85;59.60;100113.64;715284;1176;113981;-77
2021/08/03 17:04:07;;;;;;;7.93;2.20;;;;;;;23.59;61.24;100133.55;713928;1201;114013;-77
2021/08/03 17:19:21;;;;;;;5.20;2.57;;;;;;;23.08;63.68;100152.41;714245;1200;113901;-86
2021/08/03 17:34:24;;;;;;;8.47;3.13;;;;;;;22.90;66.38;100149.70;715551;1190;115738;-80
2021/08/03 17:49:28;;;;;;;7.58;3.10;;;;;;;22.39;67.04;100159.56;715833;1180;113845;-87
2021/08/03 18:04:33;;;;;;;5.73;2.27;;;;;;;21.64;67.19;100176.97;715323;1200;115250;-76
2021/08/03 18:19:37;;;;;;;5.58;2.40;;;;;;;21.10;68.31;100179.75;714446;1178;113742;-74
2021/08/03 18:35:02;;;;;;;8.28;4.40;;;;;;;20.51;70.51;100185.84;714553;1200;114489;-77
2021/08/03 18:50:06;;;;;;;8.68;4.03;;;;;;;20.03;74.17;100202.75;714890;1199;115374;-77
2021/08/03 19:05:10;;;;;;;6.13;3.33;;;;;;;19.86;74.74;100213.76;714662;1203;113827;-78
2021/08/03 19:20:12;;;;;;;10.88;4.00;;;;;;;19.59;76.08;100220.74;717580;1200;114629;-76
2021/08/03 19:35:14;;;;;;;10.20;4.90;;;;;;;19.40;77.57;100224.91;714637;1202;114503;-76
2021/08/03 19:50:20;;;;;;;13.10;3.43;;;;;;;19.00;78.80;100224.63;714571;1206;114076;-74
2021/08/03 20:05:25;;;;;;;7.13;2.85;;;;;;;18.71;80.48;100226.39;714456;1200;114026;-75
2021/08/03 20:20:29;;;;;;;10.43;2.63;;;;;;;18.55;81.00;100222.16;714413;1200;117149;-76
2021/08/03 20:35:34;;;;;;;6.38;2.50;;;;;;;18.42;82.20;100228.98;714318;1200;115756;-75
2021/08/03 20:50:37;;;;;;;19.53;6.60;;;;;;;18.17;84.20;100246.25;714417;1177;115162;-75
2021/08/03 21:05:49;;;;;;;11.50;5.65;;;;;;;17.86;85.50;100241.97;714245;1200;114777;-76
2021/08/03 21:20:52;;;;;;;5.30;2.83;;;;;;;17.30;86.71;100267.05;714165;1200;114079;-75
2021/08/03 21:35:54;;;;;;;5.07;2.60;;;;;;;17.02;87.98;100258.86;714235;1177;114646;-75
2021/08/03 21:50:56;;;;;;;5.13;2.28;;;;;;;16.83;90.30;100252.20;714295;1200;115709;-76
2021/08/03 22:05:58;;;;;;;5.68;3.08;;;;;;;16.69;91.00;100248.48;714349;1200;115170;-75
2021/08/03 22:21:00;;;;;;;22.13;7.90;;;;;;;16.47;92.01;100245.65;714282;1203;115242;-75
2021/08/03 22:36:03;;;;;;;7.83;4.10;;;;;;;16.22;93.12;100250.23;714281;1177;114153;-75
2021/08/03 22:51:06;;;;;;;7.97;4.50;;;;;;;16.06;94.01;100235.25;714255;1177;114281;-74
2021/08/03 23:06:09;;;;;;;10.80;5.63;;;;;;;15.82;96.03;100237.00;714313;1202;114568;-75
2021/08/03 23:21:12;;;;;;;10.60;5.50;;;;;;;15.60;95.13;100241.19;714070;1200;115642;-75
2021/08/03 23:36:15;;;;;;;11.03;4.37;;;;;;;15.25;97.00;100267.00;714309;1199;115186;-75
2021/08/03 23:51:17;;;;;;;5.48;3.50;;;;;;;14.90;98.79;100266.32;714390;1202;113987;-75
